createdAt,value
2023-02-16T00:02:33.798Z,48.8
2023-02-16T00:05:21.144Z,49.4
2023-02-16T00:08:11.260Z,45.5
2023-02-16T00:10:58.817Z,45.4
2023-02-16T00:14:17.995Z,49
2023-02-16T00:17:07.978Z,48.9
2023-02-16T00:19:56.916Z,50.5
2023-02-16T00:22:44.207Z,47.5
2023-02-16T00:25:31.523Z,45.1
2023-02-16T00:28:19.566Z,48.6
2023-02-16T00:31:08.004Z,51.8
2023-02-16T00:34:02.605Z,50.4
2023-02-16T00:37:11.398Z,48.3
2023-02-16T00:39:59.494Z,47.8
2023-02-16T00:42:46.875Z,47.9
2023-02-16T00:45:34.181Z,47.8
2023-02-16T00:48:23.285Z,47.8
2023-02-16T00:51:24.753Z,49.6
2023-02-16T00:54:12.997Z,44.9
2023-02-16T00:57:00.736Z,42.3
2023-02-16T00:59:48.242Z,46.6
2023-02-16T01:02:43.420Z,46.3
2023-02-16T01:05:33.752Z,45.1
2023-02-16T01:08:21.274Z,43
2023-02-16T01:11:40.463Z,42.1
2023-02-16T01:14:27.803Z,45.2
2023-02-16T01:17:16.828Z,48.1
2023-02-16T01:20:04.488Z,43.1
2023-02-16T01:23:00.007Z,46.8
2023-02-16T01:25:47.427Z,43.8
2023-02-16T01:28:35.277Z,43.6
2023-02-16T01:31:22.793Z,45.5
2023-02-16T01:34:10.653Z,46.4
2023-02-16T01:36:59.041Z,48.7
2023-02-16T01:39:46.531Z,44.2
2023-02-16T01:42:34.060Z,42.7
2023-02-16T01:45:31.695Z,41.5
2023-02-16T01:48:22.734Z,43.2
2023-02-16T01:51:12.758Z,40.2
2023-02-16T01:54:04.284Z,43.9
2023-02-16T01:57:00.009Z,40.1
2023-02-16T01:59:54.492Z,39.1
2023-02-16T02:02:54.123Z,42.2
2023-02-16T02:08:19.541Z,41.7
2023-02-16T02:11:15.380Z,41.6
2023-02-16T02:14:08.388Z,37.7
2023-02-16T02:17:02.739Z,37
2023-02-16T02:19:53.806Z,39.3
2023-02-16T02:22:50.541Z,40.6
2023-02-16T02:26:24.999Z,40.1
2023-02-16T02:29:51.506Z,36.9
2023-02-16T02:32:50.983Z,36.1
2023-02-16T02:35:58.395Z,35.8
2023-02-16T02:38:58.925Z,35
2023-02-16T02:42:03.496Z,37
2023-02-16T02:44:55.674Z,37.6
2023-02-16T02:47:52.615Z,33
2023-02-16T02:50:41.046Z,33.9
2023-02-16T02:54:05.782Z,34.8
2023-02-16T02:57:28.000Z,34.6
2023-02-16T03:00:54.430Z,37.1
2023-02-16T03:03:42.567Z,32.2
2023-02-16T03:06:34.516Z,34
2023-02-16T03:09:25.842Z,34.7
2023-02-16T03:12:13.565Z,34.1
2023-02-16T03:15:32.872Z,33.4
2023-02-16T03:18:21.261Z,31.4
2023-02-16T03:21:43.425Z,32.1
2023-02-16T03:25:02.990Z,31.4
2023-02-16T03:28:22.711Z,32.5
2023-02-16T03:31:45.164Z,32
2023-02-16T03:34:33.489Z,32.2
2023-02-16T03:37:22.285Z,29.3
2023-02-16T03:40:10.394Z,32.6
2023-02-16T03:43:17.721Z,30.2
2023-02-16T03:46:09.315Z,30.5
2023-02-16T03:48:56.830Z,28.7
2023-02-16T03:51:44.223Z,29
2023-02-16T03:54:31.776Z,30.3
2023-02-16T03:57:19.215Z,29.9
2023-02-16T04:00:06.520Z,28.5
2023-02-16T04:02:55.204Z,28.8
2023-02-16T04:05:42.715Z,29
2023-02-16T04:08:30.243Z,29.8
2023-02-16T04:11:17.583Z,32.1
2023-02-16T04:14:36.500Z,28.7
2023-02-16T04:17:23.830Z,28.8
2023-02-16T04:20:11.289Z,30.1
2023-02-16T04:23:02.136Z,27.6
2023-02-16T04:25:50.209Z,28.7
2023-02-16T04:28:37.604Z,30
2023-02-16T04:31:25.616Z,29.1
2023-02-16T04:34:13.127Z,28.6
2023-02-16T04:37:00.505Z,27.7
2023-02-16T04:39:47.980Z,28.2
2023-02-16T04:42:35.664Z,29.3
2023-02-16T04:45:22.973Z,28.2
2023-02-16T04:48:10.358Z,29.5
2023-02-16T04:50:57.662Z,28.4
2023-02-16T04:53:45.038Z,28.3
2023-02-16T04:56:32.536Z,26.7
2023-02-16T04:59:20.000Z,27.7
2023-02-16T05:02:07.709Z,29.1
2023-02-16T05:04:55.386Z,29.7
2023-02-16T05:07:42.674Z,26.4
2023-02-16T05:10:30.057Z,28.1
2023-02-16T05:13:17.351Z,25.7
2023-02-16T05:16:36.162Z,27.9
2023-02-16T05:19:23.576Z,26.8
2023-02-16T05:22:11.031Z,28.8
2023-02-16T05:24:59.468Z,26.6
2023-02-16T05:27:47.426Z,25
2023-02-16T05:30:34.860Z,26.4
2023-02-16T05:33:22.358Z,26.3
2023-02-16T05:36:09.699Z,26.4
2023-02-16T05:38:57.045Z,26.7
2023-02-16T05:41:44.459Z,24.8
2023-02-16T05:44:31.981Z,28.1
2023-02-16T05:47:19.324Z,28
2023-02-16T05:50:06.633Z,28.6
2023-02-16T05:52:54.857Z,26.7
2023-02-16T05:55:42.755Z,26.3
2023-02-16T05:58:30.057Z,26.6
2023-02-16T06:01:17.474Z,22.5
2023-02-16T06:04:05.412Z,25.1
2023-02-16T06:06:53.785Z,25.9
2023-02-16T06:09:42.215Z,26
2023-02-16T06:12:29.643Z,24.8
2023-02-16T06:15:17.018Z,23.9
2023-02-16T06:18:04.542Z,25.8
2023-02-16T06:20:52.216Z,24.8
2023-02-16T06:23:42.955Z,26.3
2023-02-16T06:26:30.278Z,25.1
2023-02-16T06:29:18.014Z,25
2023-02-16T06:32:05.464Z,23.8
2023-02-16T06:34:53.518Z,23.8
2023-02-16T06:37:41.934Z,27.1
2023-02-16T06:40:29.408Z,25.3
2023-02-16T06:43:16.767Z,24.9
2023-02-16T06:46:04.243Z,27.4
2023-02-16T06:48:51.720Z,29.4
2023-02-16T06:51:40.299Z,26.1
2023-02-16T06:54:27.648Z,29
2023-02-16T06:57:15.276Z,29.8
2023-02-16T07:00:02.972Z,26.4
2023-02-16T07:02:53.028Z,30
2023-02-16T07:05:41.814Z,29.4
2023-02-16T07:08:29.148Z,29.3
2023-02-16T07:11:17.181Z,28.5
2023-02-16T07:14:05.261Z,27.2
2023-02-16T07:16:52.927Z,27.9
2023-02-16T07:19:43.701Z,27.5
2023-02-16T07:22:31.095Z,28.8
2023-02-16T07:25:18.882Z,29
2023-02-16T07:28:06.545Z,27.5
2023-02-16T07:30:54.181Z,26.2
2023-02-16T07:33:42.536Z,26.5
2023-02-16T07:36:30.663Z,29.1
2023-02-16T07:39:18.078Z,30.6
2023-02-16T07:42:05.462Z,28.4
2023-02-16T07:44:53.052Z,26.9
2023-02-16T07:47:41.518Z,27.4
2023-02-16T07:50:29.037Z,28.1
2023-02-16T07:53:16.504Z,30
2023-02-16T07:56:03.989Z,28.4
2023-02-16T07:58:51.933Z,26.1
2023-02-16T08:01:41.469Z,24.7
2023-02-16T08:04:28.736Z,25.7
2023-02-16T08:07:16.052Z,26
2023-02-16T08:10:04.688Z,26.4
2023-02-16T08:12:53.718Z,26.1
2023-02-16T08:15:42.039Z,24.2
2023-02-16T08:18:29.727Z,23.5
2023-02-16T08:21:17.112Z,22.7
2023-02-16T08:24:06.385Z,23.1
2023-02-16T08:26:57.851Z,25.3
2023-02-16T08:29:45.990Z,20.5
2023-02-16T08:32:33.393Z,21.8
2023-02-16T08:35:20.883Z,21.6
2023-02-16T08:38:08.388Z,21.7
2023-02-16T08:40:55.857Z,21.8
2023-02-16T08:43:44.297Z,22.4
2023-02-16T08:46:32.421Z,19.6
2023-02-16T08:49:22.113Z,19.9
2023-02-16T08:52:09.693Z,22.5
2023-02-16T08:54:57.436Z,21.9
2023-02-16T08:57:44.855Z,21.9
2023-02-16T09:00:32.314Z,20.6
2023-02-16T09:03:19.627Z,19.3
2023-02-16T09:06:07.588Z,21.4
2023-02-16T09:08:56.927Z,21.3
2023-02-16T09:11:44.292Z,19.5
2023-02-16T09:14:32.281Z,18.8
2023-02-16T09:17:19.696Z,19.3
2023-02-16T09:20:06.967Z,19.6
2023-02-16T09:22:55.505Z,18.7
2023-02-16T09:25:43.322Z,21.6
2023-02-16T09:28:30.715Z,21.6
2023-02-16T09:31:18.794Z,16.9
2023-02-16T09:34:10.754Z,19.3
2023-02-16T09:37:02.658Z,21.7
2023-02-16T09:39:50.505Z,20.5
2023-02-16T09:42:37.991Z,19.5
2023-02-16T09:45:43.544Z,21
2023-02-16T09:48:34.254Z,20.9
2023-02-16T09:51:34.278Z,17.6
2023-02-16T09:54:25.700Z,19.7
2023-02-16T09:57:24.660Z,21.1
2023-02-16T10:00:26.779Z,21.7
2023-02-16T10:03:28.976Z,23
2023-02-16T10:06:30.517Z,18.9
2023-02-16T10:09:33.253Z,20.1
2023-02-16T10:12:21.590Z,19.7
2023-02-16T10:15:14.191Z,21.3
2023-02-16T10:18:06.809Z,20.5
2023-02-16T10:21:03.576Z,18.2
2023-02-16T10:23:59.861Z,17.3
2023-02-16T10:26:50.568Z,19.1
2023-02-16T10:29:47.112Z,19.7
2023-02-16T10:32:37.254Z,18.4
2023-02-16T10:35:40.634Z,21.3
2023-02-16T10:38:32.521Z,21.5
2023-02-16T10:41:28.264Z,21.5
2023-02-16T10:44:19.478Z,20
2023-02-16T10:47:11.547Z,20.6
2023-02-16T10:50:12.484Z,22.9
2023-02-16T10:53:09.989Z,19.6
2023-02-16T10:56:03.494Z,20.4
2023-02-16T10:59:12.721Z,19.8
2023-02-16T11:02:02.938Z,20.7
2023-02-16T11:05:03.632Z,18.8
2023-02-16T11:08:16.847Z,19.5
2023-02-16T11:11:04.576Z,19.8
2023-02-16T11:13:55.724Z,21.4
2023-02-16T11:16:47.232Z,21
2023-02-16T11:19:47.513Z,20.9
2023-02-16T11:22:39.677Z,21.4
2023-02-16T11:25:27.249Z,20.9
2023-02-16T11:28:14.615Z,20.9
2023-02-16T11:31:12.112Z,21.6
2023-02-16T11:34:06.044Z,20.4
2023-02-16T11:37:05.049Z,23.9
2023-02-16T11:39:58.689Z,23.5
2023-02-16T11:42:54.186Z,22
2023-02-16T11:45:45.537Z,23.1
2023-02-16T11:48:44.005Z,24.1
2023-02-16T11:51:32.256Z,23
2023-02-16T11:54:20.984Z,26
2023-02-16T11:57:08.754Z,25.8
2023-02-16T11:59:58.979Z,25.9
2023-02-16T12:02:54.117Z,23.5
2023-02-16T12:06:09.917Z,23.3
2023-02-16T12:09:14.197Z,25.7
2023-02-16T12:12:14.883Z,26.5
2023-02-16T12:15:06.058Z,27.7
2023-02-16T12:18:06.073Z,26.8
2023-02-16T12:21:10.040Z,27.5
2023-02-16T12:24:07.087Z,27.7
2023-02-16T12:27:08.277Z,26.7
2023-02-16T12:30:05.794Z,25.8
2023-02-16T12:33:09.901Z,25.4
2023-02-16T12:36:11.688Z,26.8
2023-02-16T12:39:31.322Z,24.2
2023-02-16T12:42:32.841Z,23.1
2023-02-16T12:45:35.567Z,27.2
2023-02-16T12:48:28.100Z,28.9
2023-02-16T12:51:26.354Z,29.6
2023-02-16T12:54:20.624Z,26.7
2023-02-16T12:57:14.072Z,27.8
2023-02-16T13:00:05.874Z,27.9
2023-02-16T13:03:05.087Z,29.4
2023-02-16T13:06:09.754Z,27.9
2023-02-16T13:09:05.054Z,29.6
2023-02-16T13:12:06.926Z,30.1
2023-02-16T13:15:06.428Z,29.3
2023-02-16T13:17:59.528Z,23.7
2023-02-16T13:20:51.100Z,26.7
2023-02-16T13:23:44.893Z,27.8
2023-02-16T13:26:47.307Z,25.7
2023-02-16T13:29:50.825Z,26.8
2023-02-16T13:32:50.809Z,28.1
2023-02-16T13:35:58.332Z,29.5
2023-02-16T13:39:00.529Z,28
2023-02-16T13:42:26.501Z,27.4
2023-02-16T13:45:31.522Z,28.3
2023-02-16T13:48:24.770Z,29.4
2023-02-16T13:51:16.303Z,24.8
2023-02-16T13:54:05.526Z,29.2
2023-02-16T13:57:08.326Z,28
2023-02-16T13:59:58.054Z,26.3
2023-02-16T14:02:50.148Z,28.6
2023-02-16T14:05:41.592Z,28.8
2023-02-16T14:08:30.940Z,28.1
2023-02-16T14:11:18.449Z,27
2023-02-16T14:14:06.409Z,25.4
2023-02-16T14:17:12.052Z,30.3
2023-02-16T14:20:02.571Z,27
2023-02-16T14:23:10.017Z,29
2023-02-16T14:26:13.599Z,27.1
2023-02-16T14:29:02.387Z,29.5
2023-02-16T14:32:02.739Z,28.2
2023-02-16T14:35:05.838Z,26.9
2023-02-16T14:38:01.703Z,27.2
2023-02-16T14:40:52.892Z,28.6
2023-02-16T14:43:43.154Z,27.1
2023-02-16T14:46:33.140Z,28
2023-02-16T14:49:37.195Z,26.7
2023-02-16T14:52:42.307Z,25.3
2023-02-16T14:55:48.511Z,26.7
2023-02-16T14:58:56.238Z,26
2023-02-16T15:01:48.449Z,28.2
2023-02-16T15:04:36.117Z,25.8
2023-02-16T15:07:24.350Z,26.4
2023-02-16T15:10:13.425Z,27.4
2023-02-16T15:13:06.516Z,23.6
2023-02-16T15:15:54.697Z,27.1
2023-02-16T15:18:46.766Z,26.3
2023-02-16T15:21:39.126Z,25.8
2023-02-16T15:24:26.597Z,23.8
2023-02-16T15:27:14.158Z,25.3
2023-02-16T15:30:07.978Z,23.4
2023-02-16T15:33:07.996Z,25.8
2023-02-16T15:36:10.384Z,24.2
2023-02-16T15:39:02.601Z,26.5
2023-02-16T15:41:52.230Z,26.3
2023-02-16T15:44:56.821Z,25.1
2023-02-16T15:47:46.128Z,25
2023-02-16T15:50:33.983Z,26.2
2023-02-16T15:53:22.271Z,26
2023-02-16T15:56:18.478Z,27.8
2023-02-16T15:59:20.257Z,26.9
2023-02-16T16:02:17.133Z,26.9
2023-02-16T16:05:06.769Z,26.7
2023-02-16T16:08:07.599Z,28
2023-02-16T16:10:59.377Z,27.9
2023-02-16T16:13:47.121Z,23.3
2023-02-16T16:16:34.919Z,26.1
2023-02-16T16:19:23.092Z,25.4
2023-02-16T16:22:18.506Z,24.1
2023-02-16T16:25:18.850Z,28.6
2023-02-16T16:28:14.924Z,28.6
2023-02-16T16:31:20.368Z,27.6
2023-02-16T16:34:40.187Z,28.5
2023-02-16T16:37:27.775Z,31.2
2023-02-16T16:40:19.204Z,30.2
2023-02-16T16:43:11.193Z,25.4
2023-02-16T16:46:03.507Z,29
2023-02-16T16:49:05.241Z,27.9
2023-02-16T16:52:01.452Z,28.9
2023-02-16T16:54:51.046Z,28.9
2023-02-16T16:57:38.478Z,31.8
2023-02-16T17:00:25.916Z,31.7
2023-02-16T17:03:18.987Z,29.4
2023-02-16T17:06:07.277Z,33
2023-02-16T17:08:55.516Z,27.5
2023-02-16T17:11:43.088Z,28.5
2023-02-16T17:14:30.418Z,30.9
2023-02-16T17:17:18.926Z,32.4
2023-02-16T17:20:06.499Z,30.2
2023-02-16T17:22:59.419Z,32.9
2023-02-16T17:25:49.281Z,32
2023-02-16T17:28:36.830Z,31.6
2023-02-16T17:31:24.461Z,31.3
2023-02-16T17:34:12.013Z,30.6
2023-02-16T17:36:59.365Z,30.5
2023-02-16T17:39:50.059Z,30.2
2023-02-16T17:42:37.673Z,30.8
2023-02-16T17:45:25.023Z,30.7
2023-02-16T17:48:12.367Z,31.9
2023-02-16T17:51:03.206Z,33.3
2023-02-16T17:53:51.612Z,31.2
2023-02-16T17:56:40.270Z,30.6
2023-02-16T17:59:30.942Z,31.7
2023-02-16T18:02:19.134Z,29.7
2023-02-16T18:05:06.524Z,31.3
2023-02-16T18:07:54.701Z,32.3
2023-02-16T18:10:42.932Z,32.8
2023-02-16T18:13:32.863Z,30.6
2023-02-16T18:16:20.569Z,32
2023-02-16T18:19:12.534Z,28.7
2023-02-16T18:22:00.258Z,30.7
2023-02-16T18:24:49.479Z,31.9
2023-02-16T18:27:36.849Z,30.3
2023-02-16T18:30:24.591Z,34.5
2023-02-16T18:33:12.320Z,31.6
2023-02-16T18:36:00.101Z,31.1
2023-02-16T18:38:48.386Z,30.4
2023-02-16T18:41:36.197Z,27.2
2023-02-16T18:44:24.121Z,30.8
2023-02-16T18:47:11.511Z,27.7
2023-02-16T18:49:59.122Z,30.6
2023-02-16T18:52:46.549Z,29.3
2023-02-16T18:55:34.511Z,28.4
2023-02-16T18:58:22.168Z,32.1
2023-02-16T19:01:09.772Z,30.7
2023-02-16T19:03:59.116Z,30.1
2023-02-16T19:06:48.036Z,26.4
2023-02-16T19:09:36.119Z,28.6
2023-02-16T19:12:23.635Z,31.4
2023-02-16T19:15:11.116Z,28.8
2023-02-16T19:17:58.549Z,30.7
2023-02-16T19:20:46.157Z,31.1
2023-02-16T19:23:33.498Z,29.6
2023-02-16T19:26:21.982Z,26
2023-02-16T19:29:09.382Z,24.6
2023-02-16T19:31:57.734Z,26.8
2023-02-16T19:34:45.248Z,25.5
2023-02-16T19:37:32.673Z,26.7
2023-02-16T19:40:19.992Z,29.3
2023-02-16T19:43:07.605Z,28.6
2023-02-16T19:45:55.292Z,27.8
2023-02-16T19:48:42.984Z,24.6
2023-02-16T19:51:30.820Z,25.5
2023-02-16T19:54:18.625Z,27
2023-02-16T19:57:06.746Z,28.5
2023-02-16T19:59:54.444Z,25.5
2023-02-16T20:02:42.759Z,26.6
2023-02-16T20:05:30.310Z,23.6
2023-02-16T20:08:18.290Z,23.2
2023-02-16T20:11:05.669Z,23.7
2023-02-16T20:13:53.311Z,22.3
2023-02-16T20:16:42.418Z,22.2
2023-02-16T20:19:30.203Z,22.1
2023-02-16T20:22:17.592Z,21.3
2023-02-16T20:25:05.035Z,22.5
2023-02-16T20:27:52.824Z,22.3
2023-02-16T20:30:42.869Z,22.7
2023-02-16T20:33:30.656Z,20.7
2023-02-16T20:36:18.000Z,22
2023-02-16T20:39:06.732Z,22.2
2023-02-16T20:41:54.595Z,22.3
2023-02-16T20:44:43.207Z,23.1
2023-02-16T20:47:30.655Z,22.3
2023-02-16T20:50:18.210Z,23.6
2023-02-16T20:53:05.768Z,21
2023-02-16T20:55:53.659Z,20.7
2023-02-16T20:58:47.117Z,20.8
2023-02-16T21:01:36.532Z,22.2
2023-02-16T21:04:27.976Z,23.1
2023-02-16T21:07:15.664Z,21.2
2023-02-16T21:10:03.356Z,20.1
2023-02-16T21:12:54.920Z,23.9
2023-02-16T21:15:42.952Z,21
2023-02-16T21:18:30.278Z,20.6
2023-02-16T21:21:18.012Z,21.3
2023-02-16T21:24:06.247Z,21.9
2023-02-16T21:26:54.094Z,22.1
2023-02-16T21:29:43.106Z,22.6
2023-02-16T21:32:30.674Z,19
2023-02-16T21:35:18.283Z,22.4
2023-02-16T21:38:05.736Z,21.6
2023-02-16T21:40:53.394Z,21
2023-02-16T21:44:19.591Z,21.9
2023-02-16T21:47:07.211Z,23.1
2023-02-16T21:50:28.774Z,24.5
2023-02-16T21:53:19.764Z,23.1
2023-02-16T21:56:07.622Z,22.4
2023-02-16T21:59:08.468Z,21.4
2023-02-16T22:01:57.491Z,19.1
2023-02-16T22:04:44.916Z,20.6
2023-02-16T22:07:33.763Z,22.6
2023-02-16T22:10:21.721Z,22.8
2023-02-16T22:13:09.493Z,23.8
2023-02-16T22:15:56.929Z,21.2
2023-02-16T22:18:44.496Z,19
2023-02-16T22:21:32.531Z,20.7
2023-02-16T22:24:21.378Z,21.7
2023-02-16T22:27:08.770Z,21.4
2023-02-16T22:29:56.216Z,21.6
2023-02-16T22:32:43.694Z,22.1
2023-02-16T22:35:31.172Z,23.9
2023-02-16T22:38:18.816Z,20.8
2023-02-16T22:41:06.141Z,20.5
2023-02-16T22:43:55.209Z,19
2023-02-16T22:46:44.247Z,20
2023-02-16T22:49:31.768Z,20.9
2023-02-16T22:52:19.071Z,20.5
2023-02-16T22:55:06.362Z,22.3
2023-02-16T22:57:54.880Z,18.6
2023-02-16T23:00:43.362Z,19.3
2023-02-16T23:03:31.264Z,19.2
2023-02-16T23:06:18.638Z,19.8
2023-02-16T23:09:10.218Z,20.3
2023-02-16T23:12:00.300Z,21.4
2023-02-16T23:14:47.846Z,23
2023-02-16T23:17:35.363Z,20.5
2023-02-16T23:20:22.865Z,19.6
2023-02-16T23:23:10.248Z,17.4
2023-02-16T23:25:57.573Z,17.4
2023-02-16T23:28:45.111Z,20
2023-02-16T23:31:35.935Z,21.6
2023-02-16T23:34:25.716Z,22
2023-02-16T23:37:13.072Z,19.2
2023-02-16T23:40:01.100Z,20.3
2023-02-16T23:42:49.623Z,21.9
2023-02-16T23:45:36.979Z,19.1
2023-02-16T23:48:24.506Z,20.1
2023-02-16T23:51:12.470Z,20.6
2023-02-16T23:53:59.886Z,20
2023-02-16T23:56:47.283Z,18.8
2023-02-16T23:59:34.614Z,18.1
